This is the latest recevied weather packets stored in our database for station/object WD5U-1. If no packets are shown the sender has not sent any weather packets the latest 10 day(s).
| Time | Temp. | Humidity | Pressure | Rain* | Wind** | Luminosity | Snow |
|---|---|---|---|---|---|---|---|
| 1777181185 | 24.44° C | 82% | 1007.7 hPa | 0 mm | - | - | - |
| 1777180939 | 23.89° C | 85% | 1007.7 hPa | 0 mm | - | - | - |
| 1777180817 | 24.44° C | 84% | 1007.6 hPa | 0 mm | - | - | - |
| 1777179502 | 23.89° C | 86% | 1006.9 hPa | 0 mm | - | - | - |
| 1777178419 | 23.89° C | 83% | 1007.2 hPa | 0 mm | - | - | - |
| 1777177963 | 23.33° C | 80% | 1007.3 hPa | 0 mm | - | - | - |
| 1777177457 | 23.89° C | 78% | 1007 hPa | 0 mm | - | - | - |
| 1777175898 | 23.89° C | 79% | 1007.3 hPa | 0 mm | - | - | - |
| 1777175423 | 23.89° C | 85% | 1007.5 hPa | 0 mm | - | - | - |
| 1777174957 | 24.44° C | 80% | 1007.3 hPa | 0 mm | - | - | - |
| 1777173622 | 24.44° C | 73% | 1007.1 hPa | 0.25 mm | - | - | - |
| 1777173257 | 23.89° C | 71% | 1007 hPa | 0.25 mm | - | - | - |
| 1777173145 | 23.89° C | 71% | 1007.5 hPa | 0.25 mm | - | - | - |
| 1777172907 | 25° C | 67% | 1007.3 hPa | 0.25 mm | - | - | - |
| 1777172781 | 25° C | 65% | 1007.2 hPa | 0.25 mm | - | - | - |
| 1777171822 | 24.44° C | 86% | 1007.8 hPa | 0.25 mm | - | - | - |
| 1777171702 | 24.44° C | 86% | 1007.6 hPa | 0.25 mm | - | - | - |
| 1777170980 | 24.44° C | 85% | 1007.2 hPa | 0.25 mm | - | - | - |
| 1777169583 | 24.44° C | 85% | 1008 hPa | 0 mm | - | - | - |
| 1777168105 | 26.11° C | 77% | 1007.2 hPa | 0 mm | - | - | - |
| 1777167904 | 26.11° C | 77% | 1007.2 hPa | 0 mm | - | - | - |
| 1777167377 | 26.11° C | 78% | 1007.1 hPa | 0 mm | - | - | - |
| 1777166921 | 26.11° C | 78% | 1006.6 hPa | 0 mm | - | - | - |
| 1777166304 | 26.11° C | 79% | 1006.2 hPa | 0 mm | - | - | - |
| 1777165838 | 26.11° C | 79% | 1005.9 hPa | 0 mm | - | - | - |
* Rain latest hour (hover to see other rain measurements)
** Current wind speed in m/s (hover to see current wind gust speed)